Golden Meadow, LA (70357)

1:05 AM CDT en Septiembre 21, 2014 (GMT -0500)
Port Fourchon Terminal | Change Station
CLOSE
Current Station
Aeropuerto
Location: Port Fourchon Terminal,
Altura: 7 ft
Estaciones meteorológicas cercanas

Alt 7 ft 29.12 °N, 90.20 °W | Updated 10 minutes ago

Despejado
Despejado
81 ° F
Sensación térmica 84 ° F
N
12
Viento Variable Viento desde Este

Hoy
Alta -- | Baja -- ° F
--% Posibilidad de precipitaciones
Ayer
Alta -- | Baja -- ° F
Precip. -- pul
6:48 AM 6:58 PM
Creciente menguante, 8% visible
Presión 29.98 pul
Visibilidad 10.0 Millas
Nubes Baja 2800 ft
Índice de calor 84 ° F
Punto de rocío 70 ° F
Humedad 70%
Precipitaciones 0.00 pul
Espesor de la nieve No disponible.
UV 0 de una escala de 12
Polen 10.30 de una escala de 12
Calidad del aire No disponible.
Flu Activity No disponible.
METAR KXPY 210555Z AUTO 08010KT 10SM FEW028 27/21 A2998 RMK A01

More Conditions Fewer Conditions

Presión 29.98 pul
Visibilidad 10.0 Millas
Nubes Baja 2800 ft
Índice de calor 84 ° F
Punto de rocío 70 ° F
Humedad 70%
Precipitaciones 0.00 pul
Espesor de la nieve No disponible.
UV 0 de una escala de 12
Polen 10.30 de una escala de 12
Calidad del aire No disponible.
Flu Activity No disponible.
METAR KXPY 210555Z AUTO 08010KT 10SM FEW028 27/21 A2998 RMK A01

More Conditions Fewer Conditions

10-Day Weather Forecast

Almanac

Astronomía

Sep. 21, 2014 Salida Puesta
Hora real 6:48 AM CDT 6:58 PM CDT
Crepúsculo civil 6:25 AM CDT 7:22 PM CDT
Crepúsculo náutico 5:57 AM CDT 7:50 PM CDT
Crepúsculo astronómico 5:29 AM CDT 8:18 PM CDT
Luna 4:31 AM CDT 5:28 PM CDT
Horas de luz 12h 57m
Horas de luz
12h 09m
Tomorrow will be 1m 45s shorter.
Creciente menguante, 8% of the Moon is Illuminated
Hoy
Creciente menguante
Sep 24
Nueva
Oct 1
Cuarto creciente
Oct 8
Luna llena
Oct 15
Cuarto menguante

Extremos de hoy

Máximos del estado Bajos del estado

Community

WunderPhotos

Upload Photos

1,755,098 ¡fotos cargadas!

Nearby

Grosos de nieve

Estación Profundido Altura
No tenemos constancia de nieve nueva.

Actividad de terremotos

Ciudad Distance Mag. Tiempo y dato
No hay informes recientes de la actividad sísmica.
Magnitud mínima muestra es 2,5.

Temperaturas de aguas costeras

Lugar Temperatura
Amerada Pass, LA 82.0 ° F

Estaciones meteorológicas cercanas